sensor_id;sensor_type;location;lat;lon;timestamp;pressure;altitude;pressure_sealevel;temperature;humidity
9419;BME280;4748;50.802;7.132;2022-07-09T03:33:07;102124.81;;;16.66;100.00
9419;BME280;4748;50.802;7.132;2022-07-09T03:35:32;102133.38;;;16.81;100.00
9419;BME280;4748;50.802;7.132;2022-07-09T03:37:58;102120.84;;;16.69;100.00
9419;BME280;4748;50.802;7.132;2022-07-09T03:40:23;102128.38;;;16.85;100.00
9419;BME280;4748;50.802;7.132;2022-07-09T03:42:49;102118.50;;;16.72;100.00
9419;BME280;4748;50.802;7.132;2022-07-09T03:45:14;102116.75;;;16.84;100.00
9419;BME280;4748;50.802;7.132;2022-07-09T03:47:40;102127.47;;;16.90;100.00
9419;BME280;4748;50.802;7.132;2022-07-09T03:50:06;102124.47;;;16.98;100.00
9419;BME280;4748;50.802;7.132;2022-07-09T03:52:31;102134.69;;;17.14;100.00
9419;BME280;4748;50.802;7.132;2022-07-09T03:54:57;102125.47;;;17.22;100.00
9419;BME280;4748;50.802;7.132;2022-07-09T03:57:22;102127.44;;;17.33;100.00
9419;BME280;4748;50.802;7.132;2022-07-09T03:59:47;102125.91;;;17.19;100.00
9419;BME280;4748;50.802;7.132;2022-07-09T04:02:13;102120.56;;;17.30;100.00
9419;BME280;4748;50.802;7.132;2022-07-09T04:04:39;102121.63;;;17.29;100.00
9419;BME280;4748;50.802;7.132;2022-07-09T04:07:04;102121.03;;;17.45;100.00
9419;BME280;4748;50.802;7.132;2022-07-09T04:09:30;102128.81;;;17.53;100.00
9419;BME280;4748;50.802;7.132;2022-07-09T04:11:55;102127.88;;;17.59;100.00
9419;BME280;4748;50.802;7.132;2022-07-09T04:14:21;102124.78;;;17.44;100.00
9419;BME280;4748;50.802;7.132;2022-07-09T04:16:46;102116.38;;;17.63;100.00
9419;BME280;4748;50.802;7.132;2022-07-09T04:19:12;102123.50;;;17.46;100.00
9419;BME280;4748;50.802;7.132;2022-07-09T04:21:37;102121.66;;;17.58;100.00
9419;BME280;4748;50.802;7.132;2022-07-09T04:24:03;102117.66;;;17.61;100.00
9419;BME280;4748;50.802;7.132;2022-07-09T04:26:28;102127.34;;;17.68;100.00
9419;BME280;4748;50.802;7.132;2022-07-09T04:28:54;102126.09;;;17.53;100.00
9419;BME280;4748;50.802;7.132;2022-07-09T04:31:19;102124.94;;;17.60;100.00
9419;BME280;4748;50.802;7.132;2022-07-09T04:33:46;102121.34;;;17.66;100.00
9419;BME280;4748;50.802;7.132;2022-07-09T04:36:12;102120.81;;;17.87;100.00
9419;BME280;4748;50.802;7.132;2022-07-09T04:38:37;102127.72;;;17.72;100.00
9419;BME280;4748;50.802;7.132;2022-07-09T04:41:03;102127.09;;;17.88;100.00
9419;BME280;4748;50.802;7.132;2022-07-09T04:43:29;102137.19;;;17.81;100.00
9419;BME280;4748;50.802;7.132;2022-07-09T04:45:55;102140.13;;;17.79;100.00
9419;BME280;4748;50.802;7.132;2022-07-09T04:48:20;102126.69;;;17.84;100.00
9419;BME280;4748;50.802;7.132;2022-07-09T04:50:45;102133.00;;;17.96;100.00
9419;BME280;4748;50.802;7.132;2022-07-09T04:53:11;102134.78;;;18.02;100.00
9419;BME280;4748;50.802;7.132;2022-07-09T04:55:36;102134.59;;;18.15;100.00
9419;BME280;4748;50.802;7.132;2022-07-09T04:58:01;102137.50;;;18.13;100.00
9419;BME280;4748;50.802;7.132;2022-07-09T05:00:27;102135.91;;;18.24;100.00
9419;BME280;4748;50.802;7.132;2022-07-09T05:02:52;102139.19;;;18.14;100.00
9419;BME280;4748;50.802;7.132;2022-07-09T05:05:18;102143.22;;;18.23;100.00
9419;BME280;4748;50.802;7.132;2022-07-09T05:07:47;102141.69;;;18.16;100.00
9419;BME280;4748;50.802;7.132;2022-07-09T05:10:12;102141.81;;;18.32;100.00
9419;BME280;4748;50.802;7.132;2022-07-09T05:12:38;102150.09;;;18.37;100.00
9419;BME280;4748;50.802;7.132;2022-07-09T05:15:04;102143.00;;;18.36;100.00
9419;BME280;4748;50.802;7.132;2022-07-09T05:17:33;102145.72;;;18.47;100.00
9419;BME280;4748;50.802;7.132;2022-07-09T05:19:59;102140.28;;;18.36;100.00
9419;BME280;4748;50.802;7.132;2022-07-09T05:22:25;102146.56;;;18.48;100.00
9419;BME280;4748;50.802;7.132;2022-07-09T05:24:50;102145.03;;;18.75;100.00
9419;BME280;4748;50.802;7.132;2022-07-09T05:27:15;102145.63;;;18.77;100.00
9419;BME280;4748;50.802;7.132;2022-07-09T05:29:41;102132.41;;;18.69;100.00
9419;BME280;4748;50.802;7.132;2022-07-09T05:32:07;102130.41;;;18.87;100.00
9419;BME280;4748;50.802;7.132;2022-07-09T05:34:32;102139.72;;;19.02;100.00
9419;BME280;4748;50.802;7.132;2022-07-09T05:36:57;102139.94;;;19.01;100.00
9419;BME280;4748;50.802;7.132;2022-07-09T05:39:23;102135.56;;;19.00;100.00
9419;BME280;4748;50.802;7.132;2022-07-09T05:41:48;102133.81;;;19.05;100.00
9419;BME280;4748;50.802;7.132;2022-07-09T05:44:14;102137.81;;;19.14;100.00
9419;BME280;4748;50.802;7.132;2022-07-09T05:46:40;102141.25;;;19.60;100.00
9419;BME280;4748;50.802;7.132;2022-07-09T05:49:05;102132.53;;;20.02;100.00
9419;BME280;4748;50.802;7.132;2022-07-09T05:51:31;102136.19;;;20.41;100.00
9419;BME280;4748;50.802;7.132;2022-07-09T05:53:57;102131.59;;;20.74;100.00
9419;BME280;4748;50.802;7.132;2022-07-09T05:56:22;102133.00;;;20.98;100.00
9419;BME280;4748;50.802;7.132;2022-07-09T05:58:48;102146.50;;;21.09;100.00
9419;BME280;4748;50.802;7.132;2022-07-09T06:01:14;102140.63;;;21.54;100.00
9419;BME280;4748;50.802;7.132;2022-07-09T06:03:40;102131.69;;;22.16;100.00
9419;BME280;4748;50.802;7.132;2022-07-09T06:06:06;102139.66;;;22.49;100.00
9419;BME280;4748;50.802;7.132;2022-07-09T06:08:32;102131.06;;;23.08;100.00
9419;BME280;4748;50.802;7.132;2022-07-09T06:10:58;102136.84;;;23.16;100.00
9419;BME280;4748;50.802;7.132;2022-07-09T06:13:24;102137.16;;;22.43;100.00
9419;BME280;4748;50.802;7.132;2022-07-09T06:15:49;102134.25;;;22.23;100.00
9419;BME280;4748;50.802;7.132;2022-07-09T06:18:15;102128.97;;;22.16;100.00
9419;BME280;4748;50.802;7.132;2022-07-09T06:20:41;102129.72;;;22.07;100.00
9419;BME280;4748;50.802;7.132;2022-07-09T06:23:06;102132.00;;;21.89;100.00
9419;BME280;4748;50.802;7.132;2022-07-09T06:25:32;102119.00;;;22.01;100.00
9419;BME280;4748;50.802;7.132;2022-07-09T06:27:57;102115.81;;;22.08;100.00
9419;BME280;4748;50.802;7.132;2022-07-09T06:30:23;102126.19;;;22.38;100.00
9419;BME280;4748;50.802;7.132;2022-07-09T06:32:48;102122.41;;;22.80;100.00
9419;BME280;4748;50.802;7.132;2022-07-09T06:35:14;102118.69;;;22.96;100.00
9419;BME280;4748;50.802;7.132;2022-07-09T06:37:39;102136.09;;;23.31;100.00
9419;BME280;4748;50.802;7.132;2022-07-09T06:40:06;102133.81;;;23.08;100.00
9419;BME280;4748;50.802;7.132;2022-07-09T06:42:32;102133.25;;;23.06;100.00
9419;BME280;4748;50.802;7.132;2022-07-09T06:44:57;102130.16;;;22.57;100.00
9419;BME280;4748;50.802;7.132;2022-07-09T06:47:23;102128.66;;;22.39;100.00
9419;BME280;4748;50.802;7.132;2022-07-09T06:49:48;102131.81;;;22.99;100.00
9419;BME280;4748;50.802;7.132;2022-07-09T06:52:13;102133.81;;;23.08;100.00
9419;BME280;4748;50.802;7.132;2022-07-09T06:54:39;102134.94;;;22.76;100.00
9419;BME280;4748;50.802;7.132;2022-07-09T06:57:05;102130.47;;;23.01;100.00
9419;BME280;4748;50.802;7.132;2022-07-09T06:59:31;102126.69;;;23.07;100.00
9419;BME280;4748;50.802;7.132;2022-07-09T07:01:57;102130.41;;;23.37;100.00
9419;BME280;4748;50.802;7.132;2022-07-09T07:04:22;102121.53;;;23.81;100.00
9419;BME280;4748;50.802;7.132;2022-07-09T07:06:47;102118.78;;;23.71;100.00
9419;BME280;4748;50.802;7.132;2022-07-09T07:09:14;102115.00;;;24.07;100.00
9419;BME280;4748;50.802;7.132;2022-07-09T07:11:43;102112.78;;;23.94;100.00
9419;BME280;4748;50.802;7.132;2022-07-09T07:14:09;102122.34;;;23.82;100.00
9419;BME280;4748;50.802;7.132;2022-07-09T07:16:34;102129.94;;;23.60;100.00
9419;BME280;4748;50.802;7.132;2022-07-09T07:18:59;102120.69;;;23.91;100.00
9419;BME280;4748;50.802;7.132;2022-07-09T07:21:25;102132.59;;;23.45;100.00
9419;BME280;4748;50.802;7.132;2022-07-09T07:23:50;102123.94;;;23.68;100.00
9419;BME280;4748;50.802;7.132;2022-07-09T07:26:15;102132.00;;;23.38;100.00
9419;BME280;4748;50.802;7.132;2022-07-09T07:28:41;102131.53;;;23.56;100.00
9419;BME280;4748;50.802;7.132;2022-07-09T07:31:06;102127.16;;;23.50;100.00
9419;BME280;4748;50.802;7.132;2022-07-09T07:33:31;102125.25;;;23.56;100.00
9419;BME280;4748;50.802;7.132;2022-07-09T07:35:57;102122.09;;;23.88;100.00
9419;BME280;4748;50.802;7.132;2022-07-09T07:38:22;102133.13;;;23.37;100.00
9419;BME280;4748;50.802;7.132;2022-07-09T07:40:47;102116.25;;;23.60;100.00
9419;BME280;4748;50.802;7.132;2022-07-09T07:43:13;102130.47;;;23.62;100.00
9419;BME280;4748;50.802;7.132;2022-07-09T07:45:38;102124.03;;;24.13;100.00
9419;BME280;4748;50.802;7.132;2022-07-09T07:48:04;102118.53;;;23.98;100.00
9419;BME280;4748;50.802;7.132;2022-07-09T07:50:29;102119.34;;;23.93;100.00
9419;BME280;4748;50.802;7.132;2022-07-09T07:52:55;102119.63;;;24.02;100.00
9419;BME280;4748;50.802;7.132;2022-07-09T07:55:20;102122.41;;;24.41;100.00
9419;BME280;4748;50.802;7.132;2022-07-09T07:57:45;102114.41;;;24.74;100.00
9419;BME280;4748;50.802;7.132;2022-07-09T08:00:11;102116.88;;;24.81;96.02
9419;BME280;4748;50.802;7.132;2022-07-09T08:02:37;102108.63;;;25.06;97.64
9419;BME280;4748;50.802;7.132;2022-07-09T08:05:02;102113.44;;;25.33;95.66
9419;BME280;4748;50.802;7.132;2022-07-09T08:07:28;102109.19;;;25.61;92.71
9419;BME280;4748;50.802;7.132;2022-07-09T08:09:53;102112.47;;;26.11;91.95
9419;BME280;4748;50.802;7.132;2022-07-09T08:12:18;102107.66;;;25.93;89.96
9419;BME280;4748;50.802;7.132;2022-07-09T08:14:44;102115.88;;;25.45;95.11
9419;BME280;4748;50.802;7.132;2022-07-09T08:17:09;102112.16;;;25.11;90.42
9419;BME280;4748;50.802;7.132;2022-07-09T08:19:34;102105.63;;;24.92;95.34
9419;BME280;4748;50.802;7.132;2022-07-09T08:22:00;102105.34;;;24.94;93.53
9419;BME280;4748;50.802;7.132;2022-07-09T08:24:25;102106.03;;;25.39;89.36
9419;BME280;4748;50.802;7.132;2022-07-09T08:26:52;102107.22;;;25.13;91.34
9419;BME280;4748;50.802;7.132;2022-07-09T08:29:17;102094.31;;;25.18;92.24
9419;BME280;4748;50.802;7.132;2022-07-09T08:31:42;102100.94;;;25.61;88.99
9419;BME280;4748;50.802;7.132;2022-07-09T08:34:08;102105.91;;;25.59;88.64
9419;BME280;4748;50.802;7.132;2022-07-09T08:36:33;102095.72;;;25.64;89.12
9419;BME280;4748;50.802;7.132;2022-07-09T08:38:58;102096.09;;;25.96;82.37
9419;BME280;4748;50.802;7.132;2022-07-09T08:41:24;102092.31;;;25.87;87.78
9419;BME280;4748;50.802;7.132;2022-07-09T08:43:50;102083.94;;;26.02;88.84
9419;BME280;4748;50.802;7.132;2022-07-09T08:46:19;102075.75;;;25.97;83.80
9419;BME280;4748;50.802;7.132;2022-07-09T08:48:45;102095.66;;;25.79;85.11
9419;BME280;4748;50.802;7.132;2022-07-09T08:51:11;102080.13;;;25.55;86.09
9419;BME280;4748;50.802;7.132;2022-07-09T08:53:43;102088.47;;;25.40;82.32
9419;BME280;4748;50.802;7.132;2022-07-09T08:56:09;102086.19;;;25.95;86.40
9419;BME280;4748;50.802;7.132;2022-07-09T08:58:35;102094.44;;;26.61;82.67
9419;BME280;4748;50.802;7.132;2022-07-09T09:01:01;102084.41;;;26.75;80.27
9419;BME280;4748;50.802;7.132;2022-07-09T09:03:27;102080.28;;;26.49;82.26
9419;BME280;4748;50.802;7.132;2022-07-09T09:06:04;102087.19;;;26.09;77.31
9419;BME280;4748;50.802;7.132;2022-07-09T09:08:41;102084.09;;;25.82;81.80
9419;BME280;4748;50.802;7.132;2022-07-09T09:11:12;102089.22;;;26.31;82.15
9419;BME280;4748;50.802;7.132;2022-07-09T09:13:42;102077.13;;;26.61;77.55
9419;BME280;4748;50.802;7.132;2022-07-09T09:16:09;102078.63;;;26.48;77.34
9419;BME280;4748;50.802;7.132;2022-07-09T09:18:36;102074.50;;;26.18;78.85
9419;BME280;4748;50.802;7.132;2022-07-09T09:21:06;102072.97;;;26.02;77.42
9419;BME280;4748;50.802;7.132;2022-07-09T09:23:51;102071.78;;;26.13;72.96
9419;BME280;4748;50.802;7.132;2022-07-09T09:26:22;102077.22;;;26.51;72.88
9419;BME280;4748;50.802;7.132;2022-07-09T09:28:56;102076.72;;;27.00;70.68
9419;BME280;4748;50.802;7.132;2022-07-09T09:31:29;102063.88;;;26.91;74.91
9419;BME280;4748;50.802;7.132;2022-07-09T09:33:56;102068.28;;;26.92;69.61
9419;BME280;4748;50.802;7.132;2022-07-09T09:36:33;102061.69;;;26.65;66.58
9419;BME280;4748;50.802;7.132;2022-07-09T09:39:18;102062.50;;;27.35;65.48
9419;BME280;4748;50.802;7.132;2022-07-09T09:41:48;102043.81;;;27.50;68.19
9419;BME280;4748;50.802;7.132;2022-07-09T09:44:22;102043.66;;;26.77;70.40
9419;BME280;4748;50.802;7.132;2022-07-09T09:46:49;102046.13;;;26.55;74.58
9419;BME280;4748;50.802;7.132;2022-07-09T09:49:16;102044.38;;;26.64;72.55
9419;BME280;4748;50.802;7.132;2022-07-09T09:51:51;102044.72;;;26.81;65.08
9419;BME280;4748;50.802;7.132;2022-07-09T09:54:21;102044.16;;;27.07;70.01
9419;BME280;4748;50.802;7.132;2022-07-09T09:56:48;102036.00;;;27.39;69.53
9419;BME280;4748;50.802;7.132;2022-07-09T09:59:15;102027.31;;;27.32;66.41
9419;BME280;4748;50.802;7.132;2022-07-09T10:01:43;102034.53;;;27.46;66.98
9419;BME280;4748;50.802;7.132;2022-07-09T10:04:10;102028.34;;;27.91;65.53
9419;BME280;4748;50.802;7.132;2022-07-09T10:06:37;102015.84;;;27.80;64.26
9419;BME280;4748;50.802;7.132;2022-07-09T10:09:04;102017.25;;;27.77;64.26
9419;BME280;4748;50.802;7.132;2022-07-09T10:11:44;102006.25;;;27.77;62.59
9419;BME280;4748;50.802;7.132;2022-07-09T10:14:29;102014.50;;;28.28;62.46
9419;BME280;4748;50.802;7.132;2022-07-09T10:16:55;102018.38;;;28.13;65.34
9419;BME280;4748;50.802;7.132;2022-07-09T10:19:28;102012.00;;;27.81;62.29
9419;BME280;4748;50.802;7.132;2022-07-09T10:21:56;102010.66;;;28.10;64.19
9419;BME280;4748;50.802;7.132;2022-07-09T10:24:26;102002.25;;;28.20;62.49
9419;BME280;4748;50.802;7.132;2022-07-09T10:26:51;102003.59;;;28.49;63.72
9419;BME280;4748;50.802;7.132;2022-07-09T10:29:28;101997.47;;;28.52;56.04
9419;BME280;4748;50.802;7.132;2022-07-09T10:31:55;102003.38;;;28.32;62.35
9419;BME280;4748;50.802;7.132;2022-07-09T10:35:00;101997.88;;;28.32;56.98
9419;BME280;4748;50.802;7.132;2022-07-09T10:37:42;101994.97;;;28.11;54.09
9419;BME280;4748;50.802;7.132;2022-07-09T10:40:12;101995.44;;;27.99;56.62
9419;BME280;4748;50.802;7.132;2022-07-09T10:42:40;101987.31;;;27.39;58.29
9419;BME280;4748;50.802;7.132;2022-07-09T10:45:21;101984.63;;;27.71;57.50
9419;BME280;4748;50.802;7.132;2022-07-09T10:47:59;101991.41;;;27.60;57.45
9419;BME280;4748;50.802;7.132;2022-07-09T10:50:26;101982.59;;;27.40;61.40
9419;BME280;4748;50.802;7.132;2022-07-09T10:52:52;101981.88;;;27.71;61.46
9419;BME280;4748;50.802;7.132;2022-07-09T10:55:23;101979.81;;;28.08;58.09
9419;BME280;4748;50.802;7.132;2022-07-09T10:57:49;101977.03;;;28.13;60.47
9419;BME280;4748;50.802;7.132;2022-07-09T11:00:19;101970.28;;;28.32;56.62
9419;BME280;4748;50.802;7.132;2022-07-09T11:03:00;101974.09;;;28.36;56.58
9419;BME280;4748;50.802;7.132;2022-07-09T11:05:30;101968.25;;;28.38;59.73
9419;BME280;4748;50.802;7.132;2022-07-09T11:07:57;101960.34;;;28.05;57.79
9419;BME280;4748;50.802;7.132;2022-07-09T11:10:23;101954.22;;;28.08;60.03
9419;BME280;4748;50.802;7.132;2022-07-09T11:12:49;101953.06;;;27.95;60.92
9419;BME280;4748;50.802;7.132;2022-07-09T11:15:19;101951.66;;;27.98;59.17
9419;BME280;4748;50.802;7.132;2022-07-09T11:17:57;101956.94;;;28.26;57.01
9419;BME280;4748;50.802;7.132;2022-07-09T11:20:22;101948.56;;;28.58;57.67
9419;BME280;4748;50.802;7.132;2022-07-09T11:22:48;101946.16;;;29.05;56.44
9419;BME280;4748;50.802;7.132;2022-07-09T11:25:15;101942.34;;;28.79;57.17
9419;BME280;4748;50.802;7.132;2022-07-09T11:27:41;101936.41;;;28.85;57.87
9419;BME280;4748;50.802;7.132;2022-07-09T11:30:07;101935.88;;;28.97;56.53
9419;BME280;4748;50.802;7.132;2022-07-09T11:32:36;101932.81;;;28.58;55.97
9419;BME280;4748;50.802;7.132;2022-07-09T11:35:02;101928.03;;;28.24;58.45
9419;BME280;4748;50.802;7.132;2022-07-09T11:37:27;101925.16;;;28.29;58.44
9419;BME280;4748;50.802;7.132;2022-07-09T11:39:53;101931.88;;;27.77;60.63
9419;BME280;4748;50.802;7.132;2022-07-09T11:42:18;101933.50;;;27.47;58.50
9419;BME280;4748;50.802;7.132;2022-07-09T11:44:56;101933.56;;;27.60;55.91
9419;BME280;4748;50.802;7.132;2022-07-09T11:47:35;101927.56;;;27.58;56.70
9419;BME280;4748;50.802;7.132;2022-07-09T11:50:07;101929.03;;;27.69;58.93
9419;BME280;4748;50.802;7.132;2022-07-09T11:52:33;101929.50;;;27.39;59.50
9419;BME280;4748;50.802;7.132;2022-07-09T11:55:03;101922.06;;;27.22;59.73
9419;BME280;4748;50.802;7.132;2022-07-09T11:57:30;101919.47;;;27.12;61.04
9419;BME280;4748;50.802;7.132;2022-07-09T11:59:56;101919.13;;;27.18;60.02
9419;BME280;4748;50.802;7.132;2022-07-09T12:02:26;101916.88;;;27.20;59.17
9419;BME280;4748;50.802;7.132;2022-07-09T12:04:54;101918.75;;;27.38;59.32
9419;BME280;4748;50.802;7.132;2022-07-09T12:07:19;101912.88;;;27.44;58.40
9419;BME280;4748;50.802;7.132;2022-07-09T12:09:44;101915.91;;;27.29;58.15
9419;BME280;4748;50.802;7.132;2022-07-09T12:12:10;101911.50;;;27.28;59.53
9419;BME280;4748;50.802;7.132;2022-07-09T12:14:35;101899.78;;;27.36;60.17
9419;BME280;4748;50.802;7.132;2022-07-09T12:17:01;101909.66;;;27.24;60.45
9419;BME280;4748;50.802;7.132;2022-07-09T12:19:26;101901.31;;;27.29;60.70
9419;BME280;4748;50.802;7.132;2022-07-09T12:21:51;101900.56;;;27.24;60.89
9419;BME280;4748;50.802;7.132;2022-07-09T12:24:17;101896.56;;;27.48;60.15
9419;BME280;4748;50.802;7.132;2022-07-09T12:26:42;101888.31;;;27.66;58.50
9419;BME280;4748;50.802;7.132;2022-07-09T12:29:08;101880.44;;;28.05;58.46
9419;BME280;4748;50.802;7.132;2022-07-09T12:31:33;101874.53;;;28.51;56.15
9419;BME280;4748;50.802;7.132;2022-07-09T12:34:02;101870.94;;;28.78;56.41
9419;BME280;4748;50.802;7.132;2022-07-09T12:36:28;101870.50;;;28.84;55.93
9419;BME280;4748;50.802;7.132;2022-07-09T12:38:53;101873.09;;;28.40;53.77
9419;BME280;4748;50.802;7.132;2022-07-09T12:41:18;101863.91;;;28.45;56.20
9419;BME280;4748;50.802;7.132;2022-07-09T12:43:44;101850.84;;;28.50;55.96
9419;BME280;4748;50.802;7.132;2022-07-09T12:46:09;101850.25;;;28.27;54.25
9419;BME280;4748;50.802;7.132;2022-07-09T12:48:34;101848.38;;;28.35;54.45
9419;BME280;4748;50.802;7.132;2022-07-09T12:51:00;101843.91;;;28.13;53.79
9419;BME280;4748;50.802;7.132;2022-07-09T12:53:25;101843.78;;;27.91;53.66
9419;BME280;4748;50.802;7.132;2022-07-09T12:55:51;101842.66;;;27.92;55.36
9419;BME280;4748;50.802;7.132;2022-07-09T12:58:16;101833.66;;;27.73;56.32
9419;BME280;4748;50.802;7.132;2022-07-09T13:00:41;101829.97;;;27.77;56.42
9419;BME280;4748;50.802;7.132;2022-07-09T13:03:07;101824.88;;;27.84;55.91
9419;BME280;4748;50.802;7.132;2022-07-09T13:05:32;101822.66;;;28.00;55.69
9419;BME280;4748;50.802;7.132;2022-07-09T13:07:57;101820.63;;;28.05;55.93
9419;BME280;4748;50.802;7.132;2022-07-09T13:10:23;101820.59;;;27.78;55.56
9419;BME280;4748;50.802;7.132;2022-07-09T13:12:49;101814.06;;;27.75;56.45
9419;BME280;4748;50.802;7.132;2022-07-09T13:15:15;101807.06;;;27.50;56.75
9419;BME280;4748;50.802;7.132;2022-07-09T13:17:46;101812.16;;;27.43;57.71
9419;BME280;4748;50.802;7.132;2022-07-09T13:20:12;101798.84;;;27.19;58.42
9419;BME280;4748;50.802;7.132;2022-07-09T13:22:37;101811.41;;;26.93;59.87
9419;BME280;4748;50.802;7.132;2022-07-09T13:25:03;101814.34;;;26.78;60.44
9419;BME280;4748;50.802;7.132;2022-07-09T13:27:28;101809.72;;;26.55;60.65
9419;BME280;4748;50.802;7.132;2022-07-09T13:29:54;101802.16;;;26.47;61.62
9419;BME280;4748;50.802;7.132;2022-07-09T13:32:20;101818.84;;;26.32;62.34
9419;BME280;4748;50.802;7.132;2022-07-09T13:34:46;101824.41;;;26.27;63.74
9419;BME280;4748;50.802;7.132;2022-07-09T13:37:12;101827.44;;;26.03;67.62
9419;BME280;4748;50.802;7.132;2022-07-09T13:39:37;101839.53;;;25.78;71.91
9419;BME280;4748;50.802;7.132;2022-07-09T13:42:03;101838.59;;;25.31;82.17
9419;BME280;4748;50.802;7.132;2022-07-09T13:44:28;101840.44;;;25.08;89.99
9419;BME280;4748;50.802;7.132;2022-07-09T13:46:54;101846.19;;;24.63;99.52
9419;BME280;4748;50.802;7.132;2022-07-09T13:49:19;101848.56;;;24.26;100.00
9419;BME280;4748;50.802;7.132;2022-07-09T13:51:45;101838.81;;;23.96;100.00
9419;BME280;4748;50.802;7.132;2022-07-09T13:54:10;101857.47;;;23.84;100.00
9419;BME280;4748;50.802;7.132;2022-07-09T13:56:36;101850.34;;;23.58;100.00
9419;BME280;4748;50.802;7.132;2022-07-09T13:59:01;101855.81;;;23.58;100.00
9419;BME280;4748;50.802;7.132;2022-07-09T14:01:26;101863.50;;;23.66;100.00
9419;BME280;4748;50.802;7.132;2022-07-09T14:03:52;101864.03;;;23.43;100.00
9419;BME280;4748;50.802;7.132;2022-07-09T14:06:17;101872.78;;;23.45;100.00
9419;BME280;4748;50.802;7.132;2022-07-09T14:08:42;101871.16;;;23.39;100.00
9419;BME280;4748;50.802;7.132;2022-07-09T14:11:08;101879.34;;;23.29;100.00
9419;BME280;4748;50.802;7.132;2022-07-09T14:13:33;101876.06;;;23.17;100.00
9419;BME280;4748;50.802;7.132;2022-07-09T14:16:00;101873.06;;;23.09;100.00
9419;BME280;4748;50.802;7.132;2022-07-09T14:18:25;101878.41;;;22.74;100.00
9419;BME280;4748;50.802;7.132;2022-07-09T14:20:51;101870.50;;;22.68;100.00
9419;BME280;4748;50.802;7.132;2022-07-09T14:23:16;101874.53;;;22.60;100.00
9419;BME280;4748;50.802;7.132;2022-07-09T14:25:42;101862.56;;;22.71;100.00
9419;BME280;4748;50.802;7.132;2022-07-09T14:28:08;101862.84;;;22.65;100.00
9419;BME280;4748;50.802;7.132;2022-07-09T14:30:33;101856.00;;;22.62;100.00
9419;BME280;4748;50.802;7.132;2022-07-09T14:32:59;101861.22;;;22.74;100.00
9419;BME280;4748;50.802;7.132;2022-07-09T14:35:27;101853.56;;;22.86;100.00
9419;BME280;4748;50.802;7.132;2022-07-09T14:37:52;101856.09;;;22.97;100.00
9419;BME280;4748;50.802;7.132;2022-07-09T14:40:18;101842.97;;;23.24;100.00
9419;BME280;4748;50.802;7.132;2022-07-09T14:42:43;101839.97;;;23.45;100.00
9419;BME280;4748;50.802;7.132;2022-07-09T14:45:09;101829.00;;;23.65;100.00
9419;BME280;4748;50.802;7.132;2022-07-09T14:47:35;101830.06;;;23.89;100.00
9419;BME280;4748;50.802;7.132;2022-07-09T14:50:00;101826.66;;;24.26;100.00
9419;BME280;4748;50.802;7.132;2022-07-09T14:52:26;101824.19;;;24.35;100.00
9419;BME280;4748;50.802;7.132;2022-07-09T14:54:51;101828.28;;;24.80;100.00
9419;BME280;4748;50.802;7.132;2022-07-09T14:57:16;101821.66;;;24.86;100.00
9419;BME280;4748;50.802;7.132;2022-07-09T14:59:42;101823.91;;;25.17;100.00
9419;BME280;4748;50.802;7.132;2022-07-09T15:02:07;101820.47;;;25.35;100.00
9419;BME280;4748;50.802;7.132;2022-07-09T15:04:33;101823.53;;;25.57;100.00
9419;BME280;4748;50.802;7.132;2022-07-09T15:06:58;101823.38;;;25.72;100.00
9419;BME280;4748;50.802;7.132;2022-07-09T15:09:24;101814.00;;;25.78;100.00
9419;BME280;4748;50.802;7.132;2022-07-09T15:11:49;101824.16;;;25.77;100.00
9419;BME280;4748;50.802;7.132;2022-07-09T15:14:15;101828.53;;;25.50;100.00
9419;BME280;4748;50.802;7.132;2022-07-09T15:16:40;101842.75;;;25.24;100.00
9419;BME280;4748;50.802;7.132;2022-07-09T15:19:05;101834.38;;;25.11;100.00
9419;BME280;4748;50.802;7.132;2022-07-09T15:21:31;101830.91;;;24.95;100.00
9419;BME280;4748;50.802;7.132;2022-07-09T15:23:57;101826.72;;;25.08;100.00
9419;BME280;4748;50.802;7.132;2022-07-09T15:26:22;101824.41;;;25.19;100.00
9419;BME280;4748;50.802;7.132;2022-07-09T15:28:47;101825.28;;;25.48;100.00
9419;BME280;4748;50.802;7.132;2022-07-09T15:31:13;101824.41;;;25.81;100.00
9419;BME280;4748;50.802;7.132;2022-07-09T15:33:38;101818.19;;;25.70;100.00
9419;BME280;4748;50.802;7.132;2022-07-09T15:36:04;101825.00;;;25.78;100.00
9419;BME280;4748;50.802;7.132;2022-07-09T15:38:29;101805.97;;;26.05;100.00
9419;BME280;4748;50.802;7.132;2022-07-09T15:40:55;101808.69;;;26.10;100.00
9419;BME280;4748;50.802;7.132;2022-07-09T15:43:20;101801.19;;;26.38;99.02
9419;BME280;4748;50.802;7.132;2022-07-09T15:45:46;101809.41;;;26.38;100.00
9419;BME280;4748;50.802;7.132;2022-07-09T15:48:11;101814.47;;;26.31;97.26
9419;BME280;4748;50.802;7.132;2022-07-09T15:50:36;101814.19;;;25.86;99.14
9419;BME280;4748;50.802;7.132;2022-07-09T15:53:02;101821.22;;;25.69;100.00
9419;BME280;4748;50.802;7.132;2022-07-09T15:55:27;101820.34;;;25.73;100.00
9419;BME280;4748;50.802;7.132;2022-07-09T15:57:53;101816.88;;;25.63;99.43
9419;BME280;4748;50.802;7.132;2022-07-09T16:00:18;101814.34;;;25.71;99.21
9419;BME280;4748;50.802;7.132;2022-07-09T16:02:50;101811.16;;;25.88;98.22
9419;BME280;4748;50.802;7.132;2022-07-09T16:05:17;101805.53;;;25.98;98.94
9419;BME280;4748;50.802;7.132;2022-07-09T16:07:43;101802.84;;;25.93;98.75
9419;BME280;4748;50.802;7.132;2022-07-09T16:10:08;101806.19;;;25.90;98.70
9419;BME280;4748;50.802;7.132;2022-07-09T16:12:34;101793.66;;;25.79;99.69
9419;BME280;4748;50.802;7.132;2022-07-09T16:15:23;101801.44;;;25.72;97.99
9419;BME280;4748;50.802;7.132;2022-07-09T16:17:51;101803.75;;;25.60;98.92
9419;BME280;4748;50.802;7.132;2022-07-09T16:20:17;101805.88;;;25.68;97.90
9419;BME280;4748;50.802;7.132;2022-07-09T16:22:43;101803.88;;;25.45;96.16
9419;BME280;4748;50.802;7.132;2022-07-09T16:25:10;101795.50;;;25.60;93.99
9419;BME280;4748;50.802;7.132;2022-07-09T16:27:36;101795.09;;;25.76;93.91
9419;BME280;4748;50.802;7.132;2022-07-09T16:30:03;101802.31;;;25.68;92.30
9419;BME280;4748;50.802;7.132;2022-07-09T16:32:28;101789.44;;;25.63;91.01
9419;BME280;4748;50.802;7.132;2022-07-09T16:34:55;101791.47;;;25.81;87.93